createdAt,value
2023-09-22T00:01:47.972Z,1.45
2023-09-22T00:04:51.735Z,1.10
2023-09-22T00:07:56.699Z,1.30
2023-09-22T00:11:01.373Z,1.40
2023-09-22T00:14:05.120Z,1.35
2023-09-22T00:17:08.795Z,1.10
2023-09-22T00:20:15.977Z,1.17
2023-09-22T00:23:23.396Z,1.10
2023-09-22T00:26:27.237Z,1.10
2023-09-22T00:29:30.873Z,1.20
2023-09-22T00:32:34.394Z,1.38
2023-09-22T00:35:37.795Z,1.20
2023-09-22T00:38:44.316Z,1.20
2023-09-22T00:41:47.810Z,1.23
2023-09-22T00:44:51.469Z,1.30
2023-09-22T00:47:55.556Z,1.00
2023-09-22T00:50:58.973Z,1.08
2023-09-22T00:54:04.419Z,1.25
2023-09-22T00:57:08.635Z,0.90
2023-09-22T01:00:13.869Z,1.20
2023-09-22T01:03:17.805Z,1.17
2023-09-22T01:06:21.802Z,1.60
2023-09-22T01:09:27.883Z,1.30
2023-09-22T01:12:31.453Z,1.63
2023-09-22T01:15:35.994Z,1.80
2023-09-22T01:18:39.616Z,1.73
2023-09-22T01:21:44.966Z,1.70
2023-09-22T01:24:48.790Z,1.67
2023-09-22T01:27:53.326Z,1.50
2023-09-22T01:30:57.232Z,1.67
2023-09-22T01:34:00.963Z,2.00
2023-09-22T01:37:08.740Z,1.98
2023-09-22T01:40:14.910Z,1.90
2023-09-22T01:43:19.341Z,1.63
2023-09-22T01:46:23.038Z,1.77
2023-09-22T01:49:27.043Z,2.05
2023-09-22T01:52:32.371Z,2.15
2023-09-22T01:55:36.065Z,1.73
2023-09-22T01:58:40.692Z,2.05
2023-09-22T02:01:44.277Z,1.80
2023-09-22T02:04:48.790Z,1.48
2023-09-22T02:07:54.459Z,1.73
2023-09-22T02:11:02.035Z,2.08
2023-09-22T02:14:05.804Z,1.83
2023-09-22T02:17:09.426Z,1.70
2023-09-22T02:20:19.569Z,1.75
2023-09-22T02:23:24.569Z,1.98
2023-09-22T02:26:28.057Z,1.98
2023-09-22T02:29:32.091Z,1.80
2023-09-22T02:32:40.026Z,1.98
2023-09-22T02:35:43.566Z,1.77
2023-09-22T02:38:48.931Z,2.00
2023-09-22T02:41:53.039Z,1.52
2023-09-22T02:44:57.028Z,1.52
2023-09-22T02:48:00.780Z,1.98
2023-09-22T02:51:08.495Z,1.92
2023-09-22T02:54:14.943Z,1.70
2023-09-22T02:57:18.865Z,1.73
2023-09-22T03:00:23.361Z,1.70
2023-09-22T03:03:27.938Z,1.70
2023-09-22T03:06:31.681Z,1.88
2023-09-22T03:09:37.630Z,2.17
2023-09-22T03:12:41.500Z,2.03
2023-09-22T03:15:47.401Z,2.05
2023-09-22T03:18:52.502Z,2.10
2023-09-22T03:21:56.569Z,1.95
2023-09-22T03:25:03.855Z,2.10
2023-09-22T03:28:08.393Z,1.92
2023-09-22T03:31:12.157Z,2.13
2023-09-22T03:34:16.791Z,2.22
2023-09-22T03:37:22.433Z,2.20
2023-09-22T03:40:33.876Z,2.10
2023-09-22T03:43:37.577Z,2.20
2023-09-22T03:46:41.089Z,2.28
2023-09-22T03:49:44.787Z,2.03
2023-09-22T03:52:49.747Z,2.35
2023-09-22T03:55:54.709Z,2.40
2023-09-22T03:58:58.441Z,2.50
2023-09-22T04:02:02.247Z,2.78
2023-09-22T04:05:06.251Z,2.47
2023-09-22T04:08:09.786Z,2.20
2023-09-22T04:11:15.559Z,2.20
2023-09-22T04:14:19.124Z,2.35
2023-09-22T04:17:22.808Z,2.67
2023-09-22T04:20:30.495Z,2.10
2023-09-22T04:23:38.092Z,2.58
2023-09-22T04:26:44.760Z,2.38
2023-09-22T04:29:48.559Z,2.80
2023-09-22T04:32:53.088Z,2.25
2023-09-22T04:35:57.094Z,2.42
2023-09-22T04:39:01.559Z,2.35
2023-09-22T04:42:06.871Z,2.30
2023-09-22T04:45:11.744Z,2.22
2023-09-22T04:48:15.649Z,2.50
2023-09-22T04:51:20.833Z,2.58
2023-09-22T04:54:24.862Z,1.92
2023-09-22T04:57:30.518Z,2.40
2023-09-22T05:00:35.104Z,2.15
2023-09-22T05:03:38.878Z,2.25
2023-09-22T05:06:44.844Z,2.22
2023-09-22T05:09:48.764Z,2.33
2023-09-22T05:12:55.352Z,2.88
2023-09-22T05:16:06.322Z,2.50
2023-09-22T05:19:11.362Z,2.35
2023-09-22T05:22:15.334Z,2.80
2023-09-22T05:25:19.420Z,2.60
2023-09-22T05:28:24.378Z,2.55
2023-09-22T05:31:28.146Z,2.33
2023-09-22T05:34:31.794Z,2.58
2023-09-22T05:37:35.933Z,2.75
2023-09-22T05:40:39.349Z,2.70
2023-09-22T05:43:46.029Z,3.05
2023-09-22T05:46:53.958Z,3.03
2023-09-22T05:49:58.022Z,2.80
2023-09-22T05:53:02.285Z,2.75
2023-09-22T05:56:09.089Z,3.03
2023-09-22T05:59:14.350Z,3.28
2023-09-22T06:02:17.932Z,2.90
2023-09-22T06:05:23.410Z,2.95
2023-09-22T06:08:31.235Z,3.00
2023-09-22T06:11:35.113Z,2.92
2023-09-22T06:14:41.058Z,3.22
2023-09-22T06:17:44.915Z,3.30
2023-09-22T06:20:48.557Z,2.80
2023-09-22T06:23:52.610Z,2.92
2023-09-22T06:26:56.273Z,4.32
2023-09-22T06:30:02.131Z,3.13
2023-09-22T06:33:06.133Z,3.75
2023-09-22T06:36:09.637Z,3.33
2023-09-22T06:39:13.173Z,2.85
2023-09-22T06:42:16.492Z,3.22
2023-09-22T06:45:25.340Z,3.75
2023-09-22T06:48:31.114Z,3.33
2023-09-22T06:51:39.682Z,3.17
2023-09-22T06:54:43.098Z,3.15
2023-09-22T06:57:46.888Z,2.67
2023-09-22T07:00:52.005Z,2.38
2023-09-22T07:03:55.869Z,2.90
2023-09-22T07:07:01.124Z,3.30
2023-09-22T07:10:06.144Z,2.22
2023-09-22T07:13:09.932Z,2.58
2023-09-22T07:16:15.285Z,2.60
2023-09-22T07:19:19.558Z,2.63
2023-09-22T07:22:23.325Z,2.40
2023-09-22T07:25:27.940Z,2.42
2023-09-22T07:28:31.996Z,2.08
2023-09-22T07:31:39.054Z,2.25
2023-09-22T07:34:43.447Z,2.22
2023-09-22T07:37:47.264Z,2.28
2023-09-22T07:40:52.354Z,2.28
2023-09-22T07:43:56.709Z,2.13
2023-09-22T07:47:02.382Z,2.03
2023-09-22T07:50:09.200Z,1.95
2023-09-22T07:53:13.762Z,1.98
2023-09-22T07:56:19.448Z,2.30
2023-09-22T07:59:22.870Z,1.90
2023-09-22T08:02:28.134Z,1.85
2023-09-22T08:05:35.255Z,1.60
2023-09-22T08:08:40.065Z,1.90
2023-09-22T08:11:43.966Z,1.80
2023-09-22T08:14:57.680Z,1.65
2023-09-22T08:18:04.044Z,1.83
2023-09-22T08:21:07.901Z,1.63
2023-09-22T08:24:12.484Z,1.70
2023-09-22T08:27:16.939Z,1.60
2023-09-22T08:30:20.545Z,1.45
2023-09-22T08:33:25.402Z,2.05
2023-09-22T08:36:32.278Z,1.25
2023-09-22T08:39:36.153Z,1.40
2023-09-22T08:42:41.522Z,1.50
2023-09-22T08:45:45.387Z,1.55
2023-09-22T08:48:51.442Z,1.20
2023-09-22T08:51:55.410Z,1.27
2023-09-22T08:54:59.081Z,1.50
2023-09-22T08:58:03.890Z,1.05
2023-09-22T09:01:07.646Z,1.10
2023-09-22T09:04:29.907Z,1.25
2023-09-22T09:07:39.575Z,0.95
2023-09-22T09:10:46.733Z,1.35
2023-09-22T09:13:50.338Z,0.70
2023-09-22T09:16:53.999Z,1.13
2023-09-22T09:19:58.772Z,1.00
2023-09-22T09:23:13.242Z,0.95
2023-09-22T09:26:26.236Z,0.85
2023-09-22T09:29:30.812Z,0.90
2023-09-22T09:32:34.750Z,0.95
2023-09-22T09:35:49.910Z,1.13
2023-09-22T09:38:57.153Z,1.00
2023-09-22T09:42:01.732Z,1.13
2023-09-22T09:45:05.645Z,1.17
2023-09-22T09:48:12.069Z,1.00
2023-09-22T09:51:16.137Z,1.10
2023-09-22T09:54:21.950Z,0.90
2023-09-22T09:57:26.977Z,0.88
2023-09-22T10:00:37.254Z,1.08
2023-09-22T10:03:41.837Z,0.93
2023-09-22T10:06:52.456Z,0.95
2023-09-22T10:09:57.927Z,1.00
2023-09-22T10:13:01.386Z,0.85
2023-09-22T10:16:06.105Z,0.90
2023-09-22T10:19:09.804Z,0.80
2023-09-22T10:22:13.937Z,0.77
2023-09-22T10:25:34.737Z,0.90
2023-09-22T10:28:39.495Z,0.80
2023-09-22T10:32:00.156Z,1.08
2023-09-22T10:35:06.742Z,1.00
2023-09-22T10:38:12.269Z,0.73
2023-09-22T10:41:18.167Z,0.70
2023-09-22T10:44:22.254Z,0.70
2023-09-22T10:47:28.748Z,0.80
2023-09-22T10:50:33.088Z,0.65
2023-09-22T10:53:40.151Z,0.90
2023-09-22T10:56:45.838Z,0.60
2023-09-22T10:59:49.941Z,0.60
2023-09-22T11:02:54.280Z,0.85
2023-09-22T11:06:02.689Z,0.70
2023-09-22T11:09:06.823Z,0.60
2023-09-22T11:12:14.755Z,1.00
2023-09-22T11:15:18.563Z,0.60
2023-09-22T11:18:23.114Z,0.90
2023-09-22T11:21:27.946Z,0.80
2023-09-22T11:24:31.727Z,0.63
2023-09-22T11:27:43.377Z,0.55
2023-09-22T11:30:48.111Z,0.80
2023-09-22T11:34:03.051Z,0.95
2023-09-22T11:37:06.786Z,0.85
2023-09-22T11:40:17.016Z,1.13
2023-09-22T11:43:22.190Z,1.10
2023-09-22T11:46:27.670Z,1.13
2023-09-22T11:49:38.756Z,1.00
2023-09-22T11:52:42.576Z,0.90
2023-09-22T11:55:50.301Z,0.82
2023-09-22T11:58:55.627Z,1.00
2023-09-22T12:01:59.112Z,1.00
2023-09-22T12:05:02.804Z,1.13
2023-09-22T12:08:09.710Z,1.00
2023-09-22T12:11:13.459Z,1.10
2023-09-22T12:14:18.938Z,1.00
2023-09-22T12:17:22.772Z,1.00
2023-09-22T12:20:26.235Z,1.10
2023-09-22T12:23:29.621Z,1.05
2023-09-22T12:26:33.420Z,1.35
2023-09-22T12:29:38.411Z,1.27
2023-09-22T12:32:42.144Z,1.13
2023-09-22T12:35:45.584Z,1.20
2023-09-22T12:38:49.246Z,1.17
2023-09-22T12:41:53.951Z,1.00
2023-09-22T12:45:00.782Z,1.10
2023-09-22T12:48:04.681Z,1.30
2023-09-22T12:51:08.322Z,1.08
2023-09-22T12:54:12.822Z,1.10
2023-09-22T12:57:16.420Z,0.88
2023-09-22T13:00:22.088Z,1.08
2023-09-22T13:03:26.301Z,1.08
2023-09-22T13:06:30.479Z,0.80
2023-09-22T13:09:34.188Z,1.30
2023-09-22T13:12:38.311Z,0.98
2023-09-22T13:15:47.039Z,0.90
2023-09-22T13:18:50.585Z,1.27
2023-09-22T13:21:54.257Z,1.13
2023-09-22T13:25:00.183Z,0.70
2023-09-22T13:28:05.323Z,1.00
2023-09-22T13:31:10.165Z,1.00
2023-09-22T13:34:13.967Z,0.90
2023-09-22T13:37:17.895Z,1.20
2023-09-22T13:40:24.056Z,1.00
2023-09-22T13:43:28.741Z,0.70
2023-09-22T13:46:34.052Z,0.90
2023-09-22T13:49:39.324Z,0.77
2023-09-22T13:52:43.457Z,0.65
2023-09-22T13:55:47.103Z,0.73
2023-09-22T13:58:51.575Z,0.93
2023-09-22T14:01:57.181Z,0.90
2023-09-22T14:05:01.823Z,1.00
2023-09-22T14:08:06.353Z,1.20
2023-09-22T14:11:14.375Z,0.80
2023-09-22T14:14:21.707Z,0.40
2023-09-22T14:17:27.553Z,0.70
2023-09-22T14:20:31.383Z,0.90
2023-09-22T14:23:35.928Z,0.70
2023-09-22T14:26:39.930Z,0.90
2023-09-22T14:29:44.752Z,0.70
2023-09-22T14:32:51.957Z,0.60
2023-09-22T14:35:55.617Z,0.70
2023-09-22T14:38:59.637Z,1.05
2023-09-22T14:42:04.706Z,0.77
2023-09-22T14:45:08.853Z,0.70
2023-09-22T14:48:14.102Z,0.93
2023-09-22T14:51:18.629Z,0.80
2023-09-22T14:54:22.570Z,0.80
2023-09-22T14:57:28.915Z,1.00
2023-09-22T15:00:33.757Z,0.82
2023-09-22T15:03:40.122Z,0.95
2023-09-22T15:06:44.520Z,0.75
2023-09-22T15:09:48.192Z,0.82
2023-09-22T15:12:54.680Z,0.90
2023-09-22T15:15:58.787Z,0.88
2023-09-22T15:19:06.458Z,0.75
2023-09-22T15:22:11.608Z,1.20
2023-09-22T15:25:15.220Z,0.75
2023-09-22T15:28:18.845Z,0.85
2023-09-22T15:31:22.358Z,1.23
2023-09-22T15:34:28.658Z,1.05
2023-09-22T15:37:32.497Z,0.93
2023-09-22T15:40:36.159Z,1.00
2023-09-22T15:43:40.125Z,0.70
2023-09-22T15:46:44.092Z,1.02
2023-09-22T15:49:49.531Z,0.80
2023-09-22T15:52:53.414Z,1.00
2023-09-22T15:55:58.890Z,0.70
2023-09-22T15:59:02.550Z,0.75
2023-09-22T16:02:07.396Z,1.00
2023-09-22T16:05:14.131Z,0.65
2023-09-22T16:08:17.693Z,1.17
2023-09-22T16:11:21.105Z,0.60
2023-09-22T16:14:24.953Z,0.80
2023-09-22T16:17:30.102Z,1.02
2023-09-22T16:20:35.195Z,0.90
2023-09-22T16:23:39.596Z,0.80
2023-09-22T16:26:44.102Z,0.80
2023-09-22T16:29:49.643Z,0.80
2023-09-22T16:32:53.259Z,0.68
2023-09-22T16:35:58.157Z,0.75
2023-09-22T16:39:01.798Z,1.00
2023-09-22T16:42:05.229Z,0.88
2023-09-22T16:45:09.353Z,1.10
2023-09-22T16:48:12.926Z,1.05
2023-09-22T16:51:18.235Z,1.10
2023-09-22T16:54:21.645Z,1.15
2023-09-22T16:57:25.137Z,0.82
2023-09-22T17:00:29.630Z,1.08
2023-09-22T17:03:33.474Z,1.00
2023-09-22T17:06:38.556Z,3.13
2023-09-22T17:09:43.272Z,3.08
2023-09-22T17:12:46.668Z,1.40
2023-09-22T17:15:51.119Z,0.98
2023-09-22T17:18:54.596Z,1.27
2023-09-22T17:21:59.731Z,1.15
2023-09-22T17:25:03.594Z,1.33
2023-09-22T17:28:10.059Z,1.33
2023-09-22T17:31:15.666Z,1.38
2023-09-22T17:34:19.503Z,1.50
2023-09-22T17:37:24.437Z,2.17
2023-09-22T17:40:27.932Z,1.98
2023-09-22T17:43:33.219Z,2.10
2023-09-22T17:46:37.433Z,2.00
2023-09-22T17:49:41.311Z,1.98
2023-09-22T17:52:46.627Z,1.70
2023-09-22T17:55:50.069Z,1.88
2023-09-22T17:58:53.837Z,2.15
2023-09-22T18:01:57.553Z,2.90
2023-09-22T18:05:01.990Z,1.73
2023-09-22T18:08:08.230Z,1.45
2023-09-22T18:11:18.380Z,1.00
2023-09-22T18:14:22.297Z,1.48
2023-09-22T18:17:25.884Z,1.10
2023-09-22T18:20:29.862Z,1.20
2023-09-22T18:23:37.337Z,1.45
2023-09-22T18:26:42.564Z,1.25
2023-09-22T18:29:50.251Z,1.13
2023-09-22T18:32:55.588Z,1.33
2023-09-22T18:36:00.775Z,1.30
2023-09-22T18:39:06.378Z,1.30
2023-09-22T18:42:10.388Z,0.93
2023-09-22T18:45:14.178Z,0.93
2023-09-22T18:48:17.573Z,1.05
2023-09-22T18:51:23.955Z,1.27
2023-09-22T18:54:29.525Z,1.92
2023-09-22T18:57:33.188Z,1.10
2023-09-22T19:00:36.755Z,1.20
2023-09-22T19:03:40.453Z,1.08
2023-09-22T19:06:45.056Z,1.80
2023-09-22T19:09:50.624Z,1.15
2023-09-22T19:12:53.990Z,1.00
2023-09-22T19:16:02.711Z,1.10
2023-09-22T19:19:06.535Z,0.95
2023-09-22T19:22:10.112Z,1.15
2023-09-22T19:25:15.140Z,1.35
2023-09-22T19:28:18.536Z,0.80
2023-09-22T19:31:22.128Z,1.05
2023-09-22T19:34:25.996Z,1.13
2023-09-22T19:37:32.648Z,1.10
2023-09-22T19:40:40.052Z,1.25
2023-09-22T19:43:43.821Z,1.50
2023-09-22T19:46:48.760Z,1.17
2023-09-22T19:49:53.317Z,1.33
2023-09-22T19:52:57.762Z,1.08
2023-09-22T19:56:04.600Z,0.98
2023-09-22T19:59:09.205Z,0.80
2023-09-22T20:02:13.166Z,1.00
2023-09-22T20:05:17.839Z,1.55
2023-09-22T20:08:21.391Z,1.30
2023-09-22T20:11:26.555Z,1.48
2023-09-22T20:14:30.383Z,1.50
2023-09-22T20:17:34.070Z,1.30
2023-09-22T20:20:37.571Z,1.60
2023-09-22T20:23:46.064Z,1.45
2023-09-22T20:26:50.939Z,1.73
2023-09-22T20:29:55.084Z,1.48
2023-09-22T20:32:59.687Z,1.45
2023-09-22T20:36:06.187Z,1.27
2023-09-22T20:39:11.496Z,1.75
2023-09-22T20:42:16.723Z,1.90
2023-09-22T20:45:20.631Z,1.35
2023-09-22T20:48:25.567Z,1.23
2023-09-22T20:51:29.141Z,1.52
2023-09-22T20:54:34.539Z,1.10
2023-09-22T20:57:40.472Z,1.33
2023-09-22T21:00:45.525Z,1.30
2023-09-22T21:03:49.615Z,1.35
2023-09-22T21:06:56.340Z,1.50
2023-09-22T21:09:59.972Z,1.50
2023-09-22T21:13:06.447Z,1.08
2023-09-22T21:16:11.842Z,1.30
2023-09-22T21:19:15.419Z,1.60
2023-09-22T21:22:21.068Z,1.70
2023-09-22T21:25:25.776Z,1.30
2023-09-22T21:28:33.464Z,1.20
2023-09-22T21:31:38.888Z,1.40
2023-09-22T21:34:42.625Z,1.20
2023-09-22T21:37:46.303Z,1.17
2023-09-22T21:40:51.038Z,0.85
2023-09-22T21:43:56.528Z,1.00
2023-09-22T21:47:01.098Z,1.50
2023-09-22T21:50:07.064Z,0.98
2023-09-22T21:53:11.959Z,1.10
2023-09-22T21:56:15.750Z,1.02
2023-09-22T21:59:21.001Z,1.40
2023-09-22T22:02:24.657Z,0.93
2023-09-22T22:05:30.258Z,0.93
2023-09-22T22:08:34.936Z,1.30
2023-09-22T22:11:42.161Z,1.15
2023-09-22T22:14:48.420Z,1.15
2023-09-22T22:17:55.752Z,1.02
2023-09-22T22:20:59.552Z,1.45
2023-09-22T22:24:04.337Z,1.02
2023-09-22T22:27:07.784Z,1.27
2023-09-22T22:30:15.191Z,1.30
2023-09-22T22:33:18.914Z,1.40
2023-09-22T22:36:25.242Z,1.25
2023-09-22T22:39:29.322Z,1.17
2023-09-22T22:42:33.118Z,1.20
2023-09-22T22:45:38.046Z,1.10
2023-09-22T22:48:41.800Z,1.40
2023-09-22T22:51:45.475Z,1.40
2023-09-22T22:54:49.314Z,1.27
2023-09-22T22:57:54.406Z,1.42
2023-09-22T23:01:00.221Z,1.50
2023-09-22T23:04:07.029Z,1.30
2023-09-22T23:07:12.224Z,1.08
2023-09-22T23:10:16.962Z,1.23
2023-09-22T23:13:23.102Z,1.40
2023-09-22T23:16:28.270Z,1.23
2023-09-22T23:19:33.580Z,1.17
2023-09-22T23:22:38.829Z,1.30
2023-09-22T23:25:42.900Z,1.50
2023-09-22T23:28:46.699Z,1.77
2023-09-22T23:31:52.971Z,1.33
2023-09-22T23:34:56.684Z,1.10
2023-09-22T23:38:00.817Z,1.10
2023-09-22T23:41:08.257Z,1.25
2023-09-22T23:44:13.113Z,1.20
2023-09-22T23:47:17.994Z,1.20
2023-09-22T23:50:23.011Z,1.40
2023-09-22T23:53:27.111Z,1.08
2023-09-22T23:56:33.483Z,1.20
2023-09-22T23:59:36.997Z,1.45
